createdAt,value
2022-10-02T00:00:22.156Z,71.27
2022-10-02T00:03:08.970Z,71.37
2022-10-02T00:05:43.119Z,70.54
2022-10-02T00:09:46.595Z,69.12
2022-10-02T00:12:19.508Z,69.37
2022-10-02T00:14:55.708Z,67.90
2022-10-02T00:17:26.119Z,68.46
2022-10-02T00:18:38.285Z,68.40
2022-10-02T00:19:47.507Z,68.61
2022-10-02T00:22:35.007Z,70.61
2022-10-02T00:23:53.896Z,71.33
2022-10-02T00:26:36.446Z,71.79
2022-10-02T00:29:43.435Z,71.26
2022-10-02T00:31:22.631Z,70.98
2022-10-02T00:32:52.295Z,70.50
2022-10-02T00:37:28.879Z,70.58
2022-10-02T00:40:25.009Z,70.34
2022-10-02T00:42:12.426Z,69.81
2022-10-02T00:43:40.593Z,69.84
2022-10-02T00:45:05.474Z,69.34
2022-10-02T00:48:04.923Z,69.36
2022-10-02T00:51:05.890Z,69.67
2022-10-02T00:52:22.214Z,69.85
2022-10-02T00:53:41.574Z,70.31
2022-10-02T00:56:36.281Z,70.47
2022-10-02T00:59:39.995Z,69.89
2022-10-02T01:02:12.583Z,69.45
2022-10-02T01:04:42.625Z,69.75
2022-10-02T01:05:53.259Z,69.97
2022-10-02T01:07:02.578Z,70.24
2022-10-02T01:09:28.444Z,69.89
2022-10-02T01:10:40.061Z,69.64
2022-10-02T01:13:07.047Z,69.55
2022-10-02T01:15:39.529Z,69.42
2022-10-02T01:16:49.436Z,69.58
2022-10-02T01:17:59.010Z,70.51
2022-10-02T01:20:45.228Z,70.63
2022-10-02T01:23:26.504Z,70.48
2022-10-02T01:25:55.453Z,70.12
2022-10-02T01:28:22.693Z,70.61
2022-10-02T01:30:52.252Z,70.39
2022-10-02T01:33:19.226Z,70.10
2022-10-02T01:34:28.345Z,69.83
2022-10-02T01:36:55.871Z,70.04
2022-10-02T01:38:11.648Z,70.18
2022-10-02T01:39:23.263Z,69.60
2022-10-02T01:40:35.892Z,69.80
2022-10-02T01:43:04.255Z,68.86
2022-10-02T01:45:43.129Z,68.78
2022-10-02T01:47:02.594Z,68.91
2022-10-02T01:49:58.429Z,69.31
2022-10-02T01:52:42.056Z,70.77
2022-10-02T01:55:42.677Z,70.62
2022-10-02T02:02:04.255Z,69.67
2022-10-02T02:05:09.133Z,69.38
2022-10-02T02:06:35.156Z,70.12
2022-10-02T02:09:20.444Z,69.87
2022-10-02T02:13:49.245Z,70.12
2022-10-02T02:16:32.521Z,69.95
2022-10-02T02:19:15.486Z,69.74
2022-10-02T02:21:59.941Z,70.19
2022-10-02T02:23:12.350Z,70.05
2022-10-02T02:24:28.643Z,69.92
2022-10-02T02:25:41.528Z,70.62
2022-10-02T02:26:55.052Z,70.57
2022-10-02T02:28:08.214Z,70.53
2022-10-02T02:30:38.785Z,70.28
2022-10-02T02:33:13.798Z,70.39
2022-10-02T02:35:45.536Z,70.58
2022-10-02T02:36:59.102Z,70.46
2022-10-02T02:39:33.846Z,69.74
2022-10-02T02:42:06.260Z,69.25
2022-10-02T02:44:43.809Z,69.37
2022-10-02T02:47:15.866Z,69.49
2022-10-02T02:50:00.167Z,70.64
2022-10-02T02:51:13.584Z,70.78
2022-10-02T02:53:47.658Z,71.17
2022-10-02T02:56:19.118Z,71.17
2022-10-02T02:57:32.446Z,70.90
2022-10-02T03:00:07.731Z,70.38
2022-10-02T03:02:33.112Z,70.02
2022-10-02T03:04:57.000Z,69.19
2022-10-02T03:06:32.389Z,69.58
2022-10-02T03:09:01.591Z,69.03
2022-10-02T03:11:32.894Z,69.28
2022-10-02T03:14:29.759Z,69.79
2022-10-02T03:18:48.298Z,73.40
2022-10-02T03:21:37.341Z,74.14
2022-10-02T03:25:41.082Z,73.77
2022-10-02T03:30:06.360Z,72.71
2022-10-02T03:32:36.185Z,72.29
2022-10-02T03:35:06.206Z,72.02
2022-10-02T03:37:35.603Z,72.19
2022-10-02T03:38:53.420Z,72.28
2022-10-02T03:41:15.238Z,70.62
2022-10-02T03:43:43.622Z,69.31
2022-10-02T03:44:53.153Z,69.32
2022-10-02T03:46:02.107Z,68.93
2022-10-02T03:47:11.519Z,69.32
2022-10-02T03:49:36.185Z,69.66
2022-10-02T03:50:46.177Z,70.00
2022-10-02T03:54:37.959Z,71.03
2022-10-02T03:57:17.857Z,71.51
2022-10-02T04:00:05.774Z,71.81
2022-10-02T04:02:48.180Z,71.23
2022-10-02T04:07:07.422Z,69.25
2022-10-02T04:09:48.640Z,67.98
2022-10-02T04:12:30.731Z,69.04
2022-10-02T04:15:10.933Z,69.14
2022-10-02T04:16:43.653Z,69.63
2022-10-02T04:18:04.315Z,71.10
2022-10-02T04:20:57.084Z,72.76
2022-10-02T04:22:27.047Z,73.20
2022-10-02T04:24:59.993Z,73.46
2022-10-02T04:28:07.147Z,73.33
2022-10-02T04:30:40.685Z,72.58
2022-10-02T04:33:20.400Z,73.04
2022-10-02T04:34:29.606Z,72.20
2022-10-02T04:37:27.883Z,71.78
2022-10-02T04:40:47.742Z,71.60
2022-10-02T04:43:44.547Z,71.74
2022-10-02T04:47:05.965Z,71.52
2022-10-02T04:49:41.105Z,71.31
2022-10-02T04:52:39.145Z,70.56
2022-10-02T04:55:51.932Z,71.31
2022-10-02T04:58:34.981Z,70.49
2022-10-02T05:01:31.141Z,70.15
2022-10-02T05:04:42.219Z,69.19
2022-10-02T05:06:03.636Z,70.12
2022-10-02T05:09:28.313Z,69.97
2022-10-02T05:12:49.722Z,69.77
2022-10-02T05:16:15.602Z,70.12
2022-10-02T05:19:10.544Z,71.46
2022-10-02T05:21:58.839Z,71.24
2022-10-02T05:24:36.651Z,70.72
2022-10-02T05:27:40.117Z,70.44
2022-10-02T05:32:03.854Z,71.05
2022-10-02T05:35:00.738Z,71.46
2022-10-02T05:38:18.211Z,70.00
2022-10-02T05:39:37.298Z,70.05
2022-10-02T05:43:17.454Z,69.51
2022-10-02T05:44:40.249Z,69.95
2022-10-02T05:46:00.497Z,68.79
2022-10-02T05:47:31.079Z,68.79
2022-10-02T05:48:48.410Z,68.88
2022-10-02T05:50:16.999Z,69.37
2022-10-02T05:51:47.980Z,69.43
2022-10-02T05:54:26.151Z,69.23
2022-10-02T05:57:11.307Z,69.92
2022-10-02T06:00:17.897Z,70.33
2022-10-02T06:03:08.633Z,70.80
2022-10-02T06:05:56.763Z,70.97
2022-10-02T06:08:35.350Z,70.22
2022-10-02T06:12:44.286Z,69.89
2022-10-02T06:15:21.840Z,69.10
2022-10-02T06:17:53.451Z,68.98
2022-10-02T06:20:36.398Z,69.27
2022-10-02T06:23:20.942Z,69.64
2022-10-02T06:24:56.274Z,69.97
2022-10-02T06:27:41.837Z,70.12
2022-10-02T06:30:18.394Z,70.34
2022-10-02T06:33:15.919Z,71.21
2022-10-02T06:35:56.906Z,70.98
2022-10-02T06:38:55.568Z,70.90
2022-10-02T06:43:40.099Z,70.33
2022-10-02T06:46:27.294Z,69.97
2022-10-02T06:49:10.801Z,69.21
2022-10-02T06:51:51.440Z,68.90
2022-10-02T06:54:32.563Z,68.72
2022-10-02T06:56:08.821Z,68.94
2022-10-02T06:59:09.908Z,69.51
2022-10-02T07:01:50.978Z,69.91
2022-10-02T07:05:00.756Z,70.06
2022-10-02T07:06:14.415Z,70.10
2022-10-02T07:09:22.112Z,71.46
2022-10-02T07:12:14.359Z,71.20
2022-10-02T07:15:20.604Z,71.09
2022-10-02T07:16:40.878Z,70.81
2022-10-02T07:17:54.571Z,70.68
2022-10-02T07:19:10.762Z,70.29
2022-10-02T07:22:20.510Z,69.39
2022-10-02T07:23:29.689Z,69.25
2022-10-02T07:26:38.089Z,68.77
2022-10-02T07:29:35.509Z,68.37
2022-10-02T07:33:01.371Z,69.16
2022-10-02T07:36:01.453Z,69.29
2022-10-02T07:40:40.121Z,70.04
2022-10-02T07:43:54.535Z,71.48
2022-10-02T07:46:39.461Z,71.20
2022-10-02T07:49:33.620Z,70.75
2022-10-02T07:52:52.234Z,69.93
2022-10-02T07:54:21.305Z,69.15
2022-10-02T07:56:50.101Z,68.83
2022-10-02T07:58:18.527Z,69.37
2022-10-02T08:00:53.506Z,69.70
2022-10-02T08:03:31.780Z,69.43
2022-10-02T08:06:00.409Z,70.16
2022-10-02T08:07:10.365Z,70.58
2022-10-02T08:09:53.786Z,72.70
2022-10-02T08:11:06.795Z,73.00
2022-10-02T08:13:55.838Z,72.59
2022-10-02T08:16:26.262Z,72.52
2022-10-02T08:19:06.235Z,72.27
2022-10-02T08:20:34.639Z,71.81
2022-10-02T08:23:27.793Z,71.07
2022-10-02T08:27:46.219Z,70.62
2022-10-02T08:29:23.125Z,70.32
2022-10-02T08:31:48.714Z,69.45
2022-10-02T08:34:19.026Z,70.25
2022-10-02T08:36:59.090Z,69.72
2022-10-02T08:39:56.221Z,69.61
2022-10-02T08:41:25.444Z,69.98
2022-10-02T08:44:36.136Z,71.47
2022-10-02T08:49:15.808Z,71.97
2022-10-02T08:50:29.808Z,71.78
2022-10-02T08:53:22.008Z,71.81
2022-10-02T08:55:01.982Z,71.55
2022-10-02T08:57:53.764Z,70.68
2022-10-02T08:59:25.997Z,70.78
2022-10-02T09:02:11.888Z,70.09
2022-10-02T09:04:59.896Z,69.14
2022-10-02T09:06:14.033Z,69.01
2022-10-02T09:07:58.860Z,68.84
2022-10-02T09:09:14.329Z,68.98
2022-10-02T09:10:54.300Z,69.47
2022-10-02T09:12:42.267Z,69.38
2022-10-02T09:15:27.164Z,69.94
2022-10-02T09:18:50.935Z,70.42
2022-10-02T09:22:51.986Z,70.35
2022-10-02T09:24:36.995Z,70.53
2022-10-02T09:25:54.191Z,70.33
2022-10-02T09:28:46.065Z,69.25
2022-10-02T09:31:50.304Z,69.20
2022-10-02T09:35:28.714Z,68.91
2022-10-02T09:36:46.680Z,68.93
2022-10-02T09:39:51.274Z,69.98
2022-10-02T09:41:21.428Z,69.78
2022-10-02T09:42:52.928Z,70.19
2022-10-02T09:44:29.114Z,70.39
2022-10-02T09:47:19.716Z,70.96
2022-10-02T09:50:12.018Z,70.52
2022-10-02T09:51:49.241Z,70.30
2022-10-02T09:55:25.489Z,69.77
2022-10-02T09:58:21.167Z,69.47
2022-10-02T10:03:04.996Z,69.06
2022-10-02T10:06:17.548Z,69.90
2022-10-02T10:09:32.711Z,70.60
2022-10-02T10:11:18.640Z,70.87
2022-10-02T10:14:24.340Z,70.37
2022-10-02T10:15:58.680Z,70.18
2022-10-02T10:19:02.865Z,68.71
2022-10-02T10:22:15.015Z,68.15
2022-10-02T10:25:29.564Z,68.44
2022-10-02T10:28:33.076Z,68.93
2022-10-02T10:31:42.059Z,69.63
2022-10-02T10:33:00.974Z,69.92
2022-10-02T10:35:57.838Z,70.15
2022-10-02T10:37:29.245Z,69.92
2022-10-02T10:40:53.354Z,70.60
2022-10-02T10:43:59.534Z,70.28
2022-10-02T10:45:22.307Z,70.28
2022-10-02T10:48:35.897Z,68.94
2022-10-02T10:51:35.595Z,68.15
2022-10-02T10:56:26.541Z,68.07
2022-10-02T10:59:16.137Z,68.23
2022-10-02T11:00:44.668Z,68.25
2022-10-02T11:03:39.098Z,68.90
2022-10-02T11:06:55.902Z,68.71
2022-10-02T11:09:58.614Z,69.21
2022-10-02T11:11:30.075Z,69.35
2022-10-02T11:14:41.119Z,69.58
2022-10-02T11:17:41.547Z,69.04
2022-10-02T11:20:49.972Z,69.50
2022-10-02T11:23:36.525Z,70.11
2022-10-02T11:25:23.909Z,70.26
2022-10-02T11:30:17.360Z,71.00
2022-10-02T11:32:03.577Z,70.58
2022-10-02T11:33:24.393Z,70.51
2022-10-02T11:34:51.105Z,69.76
2022-10-02T11:38:08.753Z,68.67
2022-10-02T11:41:25.402Z,67.96
2022-10-02T11:44:18.322Z,68.32
2022-10-02T11:45:44.470Z,68.29
2022-10-02T11:48:47.202Z,68.91
2022-10-02T11:51:56.398Z,69.74
2022-10-02T11:56:14.251Z,70.66
2022-10-02T11:59:42.981Z,70.94
2022-10-02T12:01:11.847Z,70.83
2022-10-02T12:03:58.111Z,70.44
2022-10-02T12:05:14.960Z,70.10
2022-10-02T12:08:20.292Z,70.01
2022-10-02T12:11:32.848Z,68.91
2022-10-02T12:12:51.915Z,68.61
2022-10-02T12:14:13.364Z,68.00
2022-10-02T12:15:37.699Z,68.06
2022-10-02T12:22:46.471Z,69.02
2022-10-02T12:26:10.111Z,69.07
2022-10-02T12:29:00.043Z,69.13
2022-10-02T12:32:11.997Z,69.16
2022-10-02T12:35:26.706Z,69.51
2022-10-02T12:38:44.501Z,69.57
2022-10-02T12:41:46.986Z,70.44
2022-10-02T12:46:27.873Z,69.66
2022-10-02T12:50:48.216Z,67.95
2022-10-02T12:53:57.529Z,67.39
2022-10-02T12:55:19.999Z,67.38
2022-10-02T12:58:06.332Z,67.77
2022-10-02T12:59:42.232Z,68.21
2022-10-02T13:03:00.244Z,67.71
2022-10-02T13:05:44.682Z,68.70
2022-10-02T13:10:21.178Z,68.29
2022-10-02T13:11:56.192Z,68.66
2022-10-02T13:14:49.300Z,69.19
2022-10-02T13:16:09.213Z,69.12
2022-10-02T13:18:46.702Z,69.34
2022-10-02T13:20:18.282Z,69.06
2022-10-02T13:23:03.473Z,69.77
2022-10-02T13:26:25.289Z,69.42
2022-10-02T13:29:20.462Z,69.30
2022-10-02T13:32:18.661Z,68.80
2022-10-02T13:35:35.035Z,68.79
2022-10-02T13:37:07.602Z,68.73
2022-10-02T13:40:04.272Z,68.72
2022-10-02T13:42:37.958Z,68.63
2022-10-02T13:45:26.017Z,68.99
2022-10-02T13:48:33.725Z,68.97
2022-10-02T13:51:25.932Z,68.96
2022-10-02T13:54:24.078Z,68.67
2022-10-02T13:56:57.887Z,68.78
2022-10-02T14:01:18.886Z,68.67
2022-10-02T14:04:05.882Z,68.53
2022-10-02T14:05:27.128Z,68.72
2022-10-02T14:08:05.170Z,68.38
2022-10-02T14:12:29.055Z,68.35
2022-10-02T14:15:42.258Z,67.79
2022-10-02T14:18:34.887Z,67.93
2022-10-02T14:21:22.553Z,68.41
2022-10-02T14:24:24.339Z,67.98
2022-10-02T14:29:03.858Z,68.11
2022-10-02T14:31:57.675Z,68.17
2022-10-02T14:34:44.687Z,67.67
2022-10-02T14:36:26.742Z,67.82
2022-10-02T14:39:29.092Z,67.83
2022-10-02T14:43:55.651Z,67.85
2022-10-02T14:45:30.217Z,67.63
2022-10-02T14:48:46.619Z,67.69
2022-10-02T14:51:53.513Z,68.05
2022-10-02T14:53:16.606Z,68.19
2022-10-02T14:56:16.496Z,67.99
2022-10-02T14:59:12.516Z,68.85
2022-10-02T15:00:24.651Z,69.07
2022-10-02T15:03:01.026Z,69.36
2022-10-02T15:06:26.110Z,68.95
2022-10-02T15:07:38.985Z,69.09
2022-10-02T15:10:34.859Z,69.27
2022-10-02T15:13:15.093Z,69.65
2022-10-02T15:15:54.521Z,69.93
2022-10-02T15:19:24.035Z,69.92
2022-10-02T15:22:11.878Z,70.34
2022-10-02T15:23:42.233Z,70.26
2022-10-02T15:26:27.638Z,70.26
2022-10-02T15:29:29.121Z,69.48
2022-10-02T15:32:24.321Z,68.81
2022-10-02T15:35:23.942Z,68.75
2022-10-02T15:36:44.011Z,68.51
2022-10-02T15:38:13.306Z,67.82
2022-10-02T15:39:43.787Z,68.16
2022-10-02T15:45:37.206Z,68.45
2022-10-02T15:46:51.351Z,68.46
2022-10-02T15:49:56.394Z,68.94
2022-10-02T15:51:18.195Z,69.04
2022-10-02T15:54:27.085Z,69.04
2022-10-02T15:57:31.955Z,68.98
2022-10-02T15:59:18.825Z,69.59
2022-10-02T16:02:10.117Z,69.92
2022-10-02T16:04:45.324Z,69.50
2022-10-02T16:07:36.684Z,70.15
2022-10-02T16:11:03.051Z,70.10
2022-10-02T16:12:16.482Z,70.08
2022-10-02T16:15:24.457Z,68.68
2022-10-02T16:18:07.468Z,68.07
2022-10-02T16:19:32.772Z,68.30
2022-10-02T16:22:30.449Z,68.37
2022-10-02T16:25:06.875Z,69.10
2022-10-02T16:28:15.918Z,69.13
2022-10-02T16:29:46.955Z,69.20
2022-10-02T16:32:37.400Z,69.70
2022-10-02T16:35:24.723Z,70.28
2022-10-02T16:36:41.622Z,70.26
2022-10-02T16:39:26.346Z,70.22
2022-10-02T16:42:42.486Z,69.71
2022-10-02T16:44:28.057Z,69.39
2022-10-02T16:47:02.298Z,68.54
2022-10-02T16:48:21.386Z,68.56
2022-10-02T16:51:33.072Z,69.12
2022-10-02T16:54:16.022Z,69.63
2022-10-02T16:57:31.511Z,69.72
2022-10-02T17:00:26.653Z,70.40
2022-10-02T17:03:14.687Z,70.41
2022-10-02T17:04:47.419Z,70.22
2022-10-02T17:07:33.633Z,70.11
2022-10-02T17:09:08.074Z,69.49
2022-10-02T17:10:34.050Z,69.49
2022-10-02T17:15:30.499Z,69.70
2022-10-02T17:18:34.202Z,69.08
2022-10-02T17:21:20.758Z,69.75
2022-10-02T17:23:03.613Z,70.16
2022-10-02T17:24:36.185Z,70.09
2022-10-02T17:27:36.484Z,69.36
2022-10-02T17:30:28.883Z,68.92
2022-10-02T17:31:53.979Z,68.70
2022-10-02T17:33:12.552Z,69.29
2022-10-02T17:34:46.225Z,69.35
2022-10-02T17:37:21.319Z,68.57
2022-10-02T17:40:23.715Z,69.19
2022-10-02T17:41:44.476Z,69.39
2022-10-02T17:43:01.898Z,69.36
2022-10-02T17:44:24.913Z,69.41
2022-10-02T17:47:21.541Z,70.24
2022-10-02T17:50:29.279Z,70.23
2022-10-02T17:53:52.715Z,69.90
2022-10-02T17:57:27.175Z,69.15
2022-10-02T17:58:55.346Z,69.08
2022-10-02T18:01:43.699Z,68.95
2022-10-02T18:05:20.160Z,69.36
2022-10-02T18:07:02.457Z,69.55
2022-10-02T18:11:30.139Z,70.08
2022-10-02T18:14:49.827Z,69.90
2022-10-02T18:19:14.482Z,69.17
2022-10-02T18:20:34.947Z,69.38
2022-10-02T18:21:56.463Z,69.27
2022-10-02T18:24:31.368Z,69.30
2022-10-02T18:29:31.198Z,69.50
2022-10-02T18:31:15.315Z,69.37
2022-10-02T18:34:14.081Z,69.81
2022-10-02T18:37:04.121Z,69.37
2022-10-02T18:41:27.005Z,69.93
2022-10-02T18:47:03.721Z,69.96
2022-10-02T18:49:59.443Z,70.57
2022-10-02T18:51:28.711Z,70.24
2022-10-02T18:54:42.072Z,70.21
2022-10-02T18:57:36.666Z,69.65
2022-10-02T19:00:25.796Z,68.46
2022-10-02T19:02:03.129Z,68.23
2022-10-02T19:03:19.832Z,68.65
2022-10-02T19:04:50.927Z,68.76
2022-10-02T19:07:54.653Z,68.85
2022-10-02T19:09:11.652Z,69.38
2022-10-02T19:10:28.666Z,69.43
2022-10-02T19:11:48.115Z,69.50
2022-10-02T19:13:17.762Z,69.40
2022-10-02T19:15:54.375Z,69.94
2022-10-02T19:18:29.388Z,70.05
2022-10-02T19:19:40.184Z,70.05
2022-10-02T19:22:26.307Z,70.16
2022-10-02T19:23:47.952Z,70.16
2022-10-02T19:25:13.562Z,69.75
2022-10-02T19:26:33.163Z,69.37
2022-10-02T19:27:54.099Z,69.36
2022-10-02T19:30:30.355Z,68.98
2022-10-02T19:31:42.234Z,69.07
2022-10-02T19:34:16.282Z,68.55
2022-10-02T19:36:50.835Z,69.35
2022-10-02T19:39:29.912Z,69.65
2022-10-02T19:40:39.964Z,69.65
2022-10-02T19:41:56.226Z,70.17
2022-10-02T19:44:50.536Z,70.42
2022-10-02T19:47:42.638Z,69.87
2022-10-02T19:48:57.724Z,69.77
2022-10-02T19:51:48.279Z,69.66
2022-10-02T19:54:31.383Z,69.14
2022-10-02T19:55:42.905Z,68.96
2022-10-02T19:58:37.110Z,69.05
2022-10-02T19:59:49.525Z,69.35
2022-10-02T20:01:01.107Z,69.66
2022-10-02T20:03:32.872Z,69.92
2022-10-02T20:04:42.113Z,69.93
2022-10-02T20:07:13.012Z,70.68
2022-10-02T20:08:32.222Z,71.04
2022-10-02T20:12:30.830Z,71.61
2022-10-02T20:15:22.782Z,69.90
2022-10-02T20:16:50.379Z,69.62
2022-10-02T20:18:00.203Z,69.34
2022-10-02T20:19:19.447Z,69.03
2022-10-02T20:20:30.089Z,68.98
2022-10-02T20:21:48.006Z,68.15
2022-10-02T20:23:01.135Z,69.04
2022-10-02T20:25:39.586Z,68.88
2022-10-02T20:26:51.727Z,69.17
2022-10-02T20:29:38.489Z,69.86
2022-10-02T20:32:30.998Z,70.03
2022-10-02T20:36:42.368Z,70.30
2022-10-02T20:40:37.668Z,69.78
2022-10-02T20:43:24.684Z,69.07
2022-10-02T20:44:37.098Z,68.65
2022-10-02T20:46:06.818Z,69.23
2022-10-02T20:47:23.182Z,68.85
2022-10-02T20:50:12.411Z,69.16
2022-10-02T20:53:15.590Z,69.81
2022-10-02T20:54:35.421Z,69.81
2022-10-02T20:56:21.366Z,69.82
2022-10-02T20:59:15.373Z,69.81
2022-10-02T21:00:28.769Z,70.09
2022-10-02T21:02:01.650Z,70.11
2022-10-02T21:03:30.475Z,69.98
2022-10-02T21:04:56.298Z,70.04
2022-10-02T21:06:36.162Z,69.86
2022-10-02T21:09:28.684Z,69.54
2022-10-02T21:11:04.702Z,69.34
2022-10-02T21:14:06.662Z,69.71
2022-10-02T21:15:31.045Z,70.02
2022-10-02T21:18:50.557Z,70.26
2022-10-02T21:20:19.555Z,69.82
2022-10-02T21:23:24.197Z,69.25
2022-10-02T21:24:46.491Z,69.05
2022-10-02T21:26:06.967Z,69.23
2022-10-02T21:27:40.773Z,69.36
2022-10-02T21:29:26.761Z,69.75
2022-10-02T21:32:01.098Z,70.24
2022-10-02T21:34:41.063Z,70.92
2022-10-02T21:37:26.402Z,70.74
2022-10-02T21:38:49.139Z,70.10
2022-10-02T21:41:52.346Z,69.04
2022-10-02T21:45:15.660Z,68.48
2022-10-02T21:48:21.302Z,68.00
2022-10-02T21:51:12.869Z,68.58
2022-10-02T21:52:28.954Z,68.74
2022-10-02T21:53:47.631Z,69.31
2022-10-02T21:56:52.556Z,69.65
2022-10-02T21:59:36.658Z,69.87
2022-10-02T22:01:08.668Z,70.34
2022-10-02T22:02:54.409Z,70.18
2022-10-02T22:06:01.245Z,70.40
2022-10-02T22:09:08.987Z,69.63
2022-10-02T22:10:25.190Z,69.08
2022-10-02T22:13:27.137Z,68.89
2022-10-02T22:14:42.550Z,68.48
2022-10-02T22:17:23.239Z,68.95
2022-10-02T22:18:51.300Z,69.14
2022-10-02T22:20:13.974Z,69.65
2022-10-02T22:23:54.647Z,69.85
2022-10-02T22:25:26.494Z,70.08
2022-10-02T22:26:45.751Z,70.58
2022-10-02T22:29:34.870Z,70.99
2022-10-02T22:31:00.993Z,71.35
2022-10-02T22:32:55.118Z,70.56
2022-10-02T22:36:03.420Z,69.63
2022-10-02T22:37:40.603Z,69.18
2022-10-02T22:40:12.525Z,69.06
2022-10-02T22:42:55.071Z,68.90
2022-10-02T22:45:26.540Z,69.81
2022-10-02T22:46:47.311Z,69.95
2022-10-02T22:49:35.654Z,70.38
2022-10-02T22:52:19.696Z,70.71
2022-10-02T22:53:37.844Z,70.89
2022-10-02T22:56:55.059Z,70.79
2022-10-02T23:00:01.913Z,70.19
2022-10-02T23:02:58.413Z,69.18
2022-10-02T23:04:26.191Z,69.36
2022-10-02T23:07:09.556Z,68.47
2022-10-02T23:08:29.011Z,69.10
2022-10-02T23:09:42.545Z,69.51
2022-10-02T23:11:02.799Z,69.60
2022-10-02T23:13:51.340Z,69.39
2022-10-02T23:18:42.659Z,70.03
2022-10-02T23:20:14.316Z,70.12
2022-10-02T23:21:52.494Z,70.29
2022-10-02T23:24:24.983Z,69.90
2022-10-02T23:28:52.694Z,69.39
2022-10-02T23:30:10.016Z,69.14
2022-10-02T23:34:24.570Z,69.84
2022-10-02T23:35:46.145Z,69.91
2022-10-02T23:38:22.389Z,70.46
2022-10-02T23:39:38.429Z,70.61
2022-10-02T23:42:38.752Z,70.78
2022-10-02T23:44:16.509Z,70.99
2022-10-02T23:46:55.273Z,69.99
2022-10-02T23:49:40.558Z,69.55
2022-10-02T23:53:10.893Z,69.75
2022-10-02T23:56:17.038Z,70.32
